Time;durP1;ratioP1;P1;durP2;ratioP2;P2;SDS_P1;SDS_P2;PMS_P1;PMS_P2;Temp;Humidity;BMP_temperature;BMP_pressure;BME280_temperature;BME280_humidity;BME280_pressure;Samples;Min_cycle;Max_cycle;Signal;HPM_P1;HPM_P2
2023/09/28 00:02:22;;;;;;;14.10;4.00;;;15.20;97.30;;;;;;6135283;23;20450;-67
2023/09/28 00:04:49;;;;;;;3.40;2.60;;;15.20;97.10;;;;;;6135804;23;20453;-67
2023/09/28 00:07:16;;;;;;;4.97;3.20;;;15.20;97.00;;;;;;6134090;23;20445;-67
2023/09/28 00:09:42;;;;;;;3.50;2.73;;;15.30;97.00;;;;;;6104161;23;20850;-67
2023/09/28 00:12:08;;;;;;;3.50;2.93;;;15.30;97.10;;;;;;6122085;23;20449;-67
2023/09/28 00:14:36;;;;;;;3.23;2.90;;;15.20;97.50;;;;;;6132642;23;20442;-67
2023/09/28 00:17:03;;;;;;;4.07;3.67;;;15.10;97.80;;;;;;6099659;23;20439;-66
2023/09/28 00:19:30;;;;;;;10.30;4.07;;;14.80;98.40;;;;;;6124792;23;20442;-66
2023/09/28 00:21:56;;;;;;;9.23;3.73;;;14.80;98.60;;;;;;6133191;23;20454;-67
2023/09/28 00:24:24;;;;;;;7.00;2.80;;;14.80;98.50;;;;;;6136545;23;20446;-67
2023/09/28 00:26:51;;;;;;;11.33;3.77;;;14.80;98.50;;;;;;6133337;23;20226;-66
2023/09/28 00:29:18;;;;;;;4.27;3.27;;;14.90;98.40;;;;;;6135770;23;20477;-66
2023/09/28 00:31:48;;;;;;;3.20;2.90;;;15.00;98.30;;;;;;6136582;23;21002;-67
2023/09/28 00:34:14;;;;;;;3.97;2.87;;;15.00;98.20;;;;;;6093477;23;20533;-67
2023/09/28 00:36:41;;;;;;;9.30;3.37;;;14.90;98.40;;;;;;6134567;23;20529;-66
2023/09/28 00:39:08;;;;;;;4.00;3.53;;;14.80;98.60;;;;;;6109864;23;20730;-67
2023/09/28 00:41:35;;;;;;;6.57;3.23;;;;;;;;;;6121367;23;20947;-67
2023/09/28 00:44:03;;;;;;;9.73;4.33;;;14.70;99.90;;;;;;6115176;23;20446;-67
2023/09/28 00:46:34;;;;;;;3.73;3.23;;;14.80;99.80;;;;;;6108072;23;20628;-66
2023/09/28 00:49:04;;;;;;;7.50;3.43;;;14.90;99.20;;;;;;6123136;23;20768;-66
2023/09/28 00:51:33;;;;;;;6.43;2.90;;;14.90;99.10;;;;;;6127341;23;20975;-67
2023/09/28 00:54:00;;;;;;;22.07;4.27;;;15.00;99.10;;;;;;6132926;23;20979;-67
2023/09/28 00:56:27;;;;;;;3.90;3.20;;;15.00;98.90;;;;;;6133463;23;20946;-66
2023/09/28 00:58:56;;;;;;;8.57;3.13;;;15.10;98.80;;;;;;6134848;23;20508;-65
2023/09/28 01:01:26;;;;;;;9.13;3.17;;;15.10;98.90;;;;;;6136122;23;20466;-66
2023/09/28 01:03:52;;;;;;;6.77;3.80;;;14.90;99.60;;;;;;6133580;23;21078;-66
2023/09/28 01:06:20;;;;;;;4.23;3.47;;;14.80;99.80;;;;;;6133920;23;20449;-66
2023/09/28 01:08:46;;;;;;;5.00;3.30;;;14.80;99.90;;;;;;6134880;23;20983;-66
2023/09/28 01:11:13;;;;;;;11.13;3.30;;;14.90;99.60;;;;;;6135425;23;20521;-66
2023/09/28 01:16:19;;;;;;;11.00;3.70;;;;;;;;;;6120727;23;20791;-66
2023/09/28 01:18:45;;;;;;;4.27;3.47;;;15.20;98.90;;;;;;6132058;23;20521;-66
2023/09/28 01:21:12;;;;;;;3.70;3.00;;;15.20;98.70;;;;;;6127419;23;20960;-66
2023/09/28 01:23:40;;;;;;;4.60;2.80;;;15.20;99.00;;;;;;6128892;23;20512;-65
2023/09/28 01:26:07;;;;;;;4.07;3.03;;;15.20;98.90;;;;;;6130032;23;20529;-65
2023/09/28 01:28:33;;;;;;;17.30;4.07;;;15.20;98.90;;;;;;6134068;23;20500;-66
2023/09/28 01:31:01;;;;;;;4.50;3.43;;;15.20;98.90;;;;;;6135634;23;20445;-66
2023/09/28 01:33:27;;;;;;;13.77;3.93;;;15.20;98.80;;;;;;6134903;23;20521;-65
2023/09/28 01:35:54;;;;;;;11.87;4.10;;;15.10;99.40;;;;;;6135347;23;20438;-66
2023/09/28 01:38:26;;;;;;;3.83;3.40;;;15.00;99.60;;;;;;6135672;23;20823;-65
2023/09/28 01:40:55;;;;;;;4.97;4.03;;;14.90;99.90;;;;;;6135294;23;20449;-66
2023/09/28 01:43:21;;;;;;;13.80;3.60;;;15.00;99.90;;;;;;6135635;23;20462;-65
2023/09/28 01:45:49;;;;;;;3.53;3.23;;;15.10;99.70;;;;;;6137374;23;20477;-66
2023/09/28 01:48:15;;;;;;;4.80;3.77;;;15.20;99.40;;;;;;6136716;23;20210;-65
2023/09/28 01:50:42;;;;;;;8.60;2.70;;;15.20;99.10;;;;;;6134463;23;20438;-66
2023/09/28 01:53:08;;;;;;;7.13;3.73;;;15.30;98.80;;;;;;6135792;23;21023;-66
2023/09/28 01:55:35;;;;;;;3.40;3.10;;;15.30;98.80;;;;;;6134262;23;20533;-66
2023/09/28 01:58:04;;;;;;;5.07;3.93;;;15.40;98.60;;;;;;6133748;23;20210;-65
2023/09/28 02:00:30;;;;;;;4.70;3.60;;;15.40;98.40;;;;;;6138067;23;21030;-66
2023/09/28 02:02:56;;;;;;;13.50;4.60;;;15.40;98.30;;;;;;6137512;23;20438;-66
2023/09/28 02:05:25;;;;;;;4.37;2.73;;;15.40;98.00;;;;;;6137850;23;20525;-66
2023/09/28 02:07:51;;;;;;;11.90;4.47;;;15.50;98.00;;;;;;6139366;23;20306;-65
2023/09/28 02:10:17;;;;;;;10.80;3.23;;;15.50;98.00;;;;;;6140382;23;20434;-65
2023/09/28 02:12:44;;;;;;;3.60;2.53;;;15.50;97.90;;;;;;6138457;23;20434;-66
2023/09/28 02:15:15;;;;;;;5.90;3.63;;;15.40;98.10;;;;;;6138069;23;20466;-66
2023/09/28 02:17:41;;;;;;;9.27;3.43;;;15.40;98.20;;;;;;6139270;23;20214;-66
2023/09/28 02:20:10;;;;;;;4.83;3.33;;;15.40;98.20;;;;;;6138730;23;20449;-65
2023/09/28 02:22:43;;;;;;;4.17;3.87;;;15.40;98.20;;;;;;6138496;23;20453;-66
2023/09/28 02:25:10;;;;;;;8.20;3.67;;;15.40;98.20;;;;;;6138358;23;20446;-65
2023/09/28 02:27:37;;;;;;;6.83;3.07;;;15.40;98.10;;;;;;6139111;23;20781;-66
2023/09/28 02:30:06;;;;;;;5.63;4.03;;;15.30;98.20;;;;;;6138351;23;20451;-65
2023/09/28 02:32:34;;;;;;;11.30;3.13;;;15.30;98.10;;;;;;6138543;23;20446;-65
2023/09/28 02:35:00;;;;;;;6.80;3.93;;;15.20;98.40;;;;;;6120992;23;20449;-66
2023/09/28 02:37:28;;;;;;;16.73;3.70;;;15.20;98.40;;;;;;6113189;23;20465;-66
2023/09/28 02:39:53;;;;;;;3.10;2.53;;;15.20;98.40;;;;;;6139163;23;20472;-65
2023/09/28 02:42:21;;;;;;;5.17;3.30;;;15.20;98.10;;;;;;6138757;23;20944;-66
2023/09/28 02:44:47;;;;;;;9.10;3.70;;;15.20;98.20;;;;;;6139809;23;20675;-65
2023/09/28 02:47:15;;;;;;;4.40;3.57;;;;;;;;;;6099462;23;20962;-66
2023/09/28 02:49:43;;;;;;;6.13;3.20;;;15.20;98.20;;;;;;6140067;23;20442;-65
2023/09/28 02:52:10;;;;;;;9.30;3.23;;;15.20;98.00;;;;;;6135922;23;21157;-66
2023/09/28 02:54:36;;;;;;;4.20;2.57;;;15.10;98.20;;;;;;6138379;23;20819;-66
2023/09/28 02:57:03;;;;;;;4.50;3.60;;;15.00;98.60;;;;;;6138911;23;20662;-65
2023/09/28 02:59:29;;;;;;;11.70;3.67;;;14.90;98.90;;;;;;6139076;23;20211;-65
2023/09/28 03:01:55;;;;;;;3.73;2.63;;;14.80;99.00;;;;;;6137349;23;20448;-66
2023/09/28 03:04:21;;;;;;;4.27;2.53;;;14.90;98.90;;;;;;6138746;23;20211;-65
2023/09/28 03:06:52;;;;;;;4.13;3.10;;;14.90;98.60;;;;;;6139321;23;20444;-65
2023/09/28 03:09:18;;;;;;;9.73;3.00;;;14.80;98.80;;;;;;6136849;23;20290;-65
2023/09/28 03:11:45;;;;;;;13.33;3.53;;;14.70;99.00;;;;;;6137379;23;20644;-66
2023/09/28 03:14:11;;;;;;;4.37;3.07;;;14.80;98.80;;;;;;6137691;23;20722;-65
2023/09/28 03:16:39;;;;;;;4.90;3.00;;;14.80;98.60;;;;;;6138140;23;20446;-65
2023/09/28 03:19:06;;;;;;;7.77;3.63;;;14.90;98.60;;;;;;6136702;23;20211;-65
2023/09/28 03:21:34;;;;;;;3.70;3.10;;;14.90;98.70;;;;;;6138306;23;20521;-66
2023/09/28 03:24:02;;;;;;;4.97;3.40;;;14.80;99.10;;;;;;6135020;23;20454;-66
2023/09/28 03:26:30;;;;;;;9.73;3.33;;;14.80;98.80;;;;;;6137967;23;21040;-66
2023/09/28 03:28:56;;;;;;;3.90;3.40;;;14.80;98.60;;;;;;6136955;23;20446;-65
2023/09/28 03:31:27;;;;;;;2.80;2.40;;;14.90;98.50;;;;;;6137110;23;20542;-66
2023/09/28 03:33:53;;;;;;;9.70;3.47;;;14.90;98.30;;;;;;6136198;23;21115;-66
2023/09/28 03:36:22;;;;;;;3.60;3.30;;;14.90;98.30;;;;;;6139640;23;20497;-65
2023/09/28 03:38:50;;;;;;;9.07;3.37;;;14.90;98.10;;;;;;6141396;23;20448;-66
2023/09/28 03:41:18;;;;;;;3.40;2.80;;;14.90;98.10;;;;;;6139716;23;20437;-66
2023/09/28 03:43:46;;;;;;;5.80;3.43;;;14.90;98.00;;;;;;6139509;23;20709;-65
2023/09/28 03:46:13;;;;;;;33.33;4.60;;;14.90;97.90;;;;;;6137655;23;20434;-65
2023/09/28 03:48:40;;;;;;;4.20;3.80;;;14.90;97.80;;;;;;6139790;23;20452;-65
2023/09/28 03:51:06;;;;;;;13.13;4.13;;;14.80;98.00;;;;;;6138076;23;20444;-65
2023/09/28 03:53:39;;;;;;;16.63;3.80;;;14.80;97.80;;;;;;6137783;23;20446;-65
2023/09/28 03:56:06;;;;;;;8.87;3.10;;;;;;;;;;6116026;23;20447;-65
2023/09/28 03:58:35;;;;;;;3.30;3.00;;;14.80;97.70;;;;;;6124343;23;21136;-65
2023/09/28 04:01:07;;;;;;;7.93;3.67;;;14.80;97.70;;;;;;6140513;23;20986;-65
2023/09/28 04:03:34;;;;;;;5.90;2.83;;;14.70;98.00;;;;;;6138439;23;20442;-65
2023/09/28 04:06:01;;;;;;;8.33;3.30;;;14.70;97.90;;;;;;6135745;23;20453;-64
2023/09/28 04:08:28;;;;;;;3.10;2.80;;;14.60;97.80;;;;;;6139035;23;20948;-65
2023/09/28 04:10:55;;;;;;;4.33;3.50;;;14.60;97.80;;;;;;6139762;23;20452;-65
2023/09/28 04:13:22;;;;;;;3.47;3.17;;;14.60;98.10;;;;;;6140636;23;20438;-65
2023/09/28 04:15:52;;;;;;;4.70;3.30;;;14.60;98.30;;;;;;6139800;23;20452;-66
2023/09/28 04:18:19;;;;;;;5.10;3.57;;;14.60;98.20;;;;;;6141326;23;20442;-64
2023/09/28 04:20:45;;;;;;;17.30;4.40;;;14.60;98.20;;;;;;6139051;23;20438;-64
2023/09/28 04:23:12;;;;;;;2.80;2.60;;;14.60;98.30;;;;;;6137284;23;20442;-65
2023/09/28 04:25:39;;;;;;;4.80;3.13;;;14.40;98.40;;;;;;6140684;23;20853;-64
2023/09/28 04:28:06;;;;;;;13.10;3.90;;;14.40;98.30;;;;;;6139854;23;20443;-66
2023/09/28 04:30:34;;;;;;;20.50;4.27;;;;;;;;;;6140740;23;20476;-65
2023/09/28 04:33:02;;;;;;;6.53;3.40;;;14.30;98.70;;;;;;6138453;23;20809;-65
2023/09/28 04:35:29;;;;;;;6.80;3.30;;;14.40;98.30;;;;;;6140984;23;20446;-66
2023/09/28 04:37:56;;;;;;;3.33;2.90;;;14.40;98.10;;;;;;6138553;23;20452;-65
2023/09/28 04:40:25;;;;;;;8.30;3.93;;;14.40;98.00;;;;;;6141439;23;20446;-65
2023/09/28 04:42:53;;;;;;;4.57;4.07;;;14.40;97.90;;;;;;6139799;23;20809;-66
2023/09/28 04:45:20;;;;;;;10.83;3.80;;;14.30;98.10;;;;;;6141191;23;20460;-66
2023/09/28 04:47:47;;;;;;;6.20;3.17;;;14.30;98.10;;;;;;6141040;23;20449;-66
2023/09/28 04:50:16;;;;;;;4.10;3.67;;;14.20;98.10;;;;;;6140151;23;20457;-65
2023/09/28 04:52:43;;;;;;;4.37;3.40;;;14.10;97.90;;;;;;6138563;23;21140;-65
2023/09/28 04:55:11;;;;;;;42.43;5.10;;;14.10;97.90;;;;;;6140181;23;20457;-65
2023/09/28 04:57:38;;;;;;;7.73;3.30;;;14.10;98.10;;;;;;6139101;23;20446;-65
2023/09/28 05:00:08;;;;;;;5.23;3.90;;;14.10;98.60;;;;;;6114426;23;20451;-64
2023/09/28 05:02:35;;;;;;;11.80;3.90;;;14.10;98.60;;;;;;6123017;23;20446;-65
2023/09/28 05:05:05;;;;;;;7.97;3.70;;;14.10;98.30;;;;;;6139564;23;20442;-64
2023/09/28 05:07:33;;;;;;;5.97;4.00;;;14.10;98.20;;;;;;6140227;23;20470;-64
2023/09/28 05:10:00;;;;;;;6.27;4.13;;;14.10;98.10;;;;;;6138393;23;20442;-65
2023/09/28 05:12:27;;;;;;;10.93;4.20;;;14.00;98.30;;;;;;6138246;23;20449;-65
2023/09/28 05:14:54;;;;;;;9.53;3.97;;;13.90;98.40;;;;;;6138418;23;20456;-65
2023/09/28 05:17:21;;;;;;;5.87;4.10;;;13.90;98.40;;;;;;6140684;23;20443;-65
2023/09/28 05:19:48;;;;;;;6.07;3.97;;;14.00;98.50;;;;;;6140488;23;20438;-64
2023/09/28 05:22:15;;;;;;;4.60;3.53;;;13.90;98.70;;;;;;6138909;23;20446;-64
2023/09/28 05:24:45;;;;;;;10.30;3.90;;;;;;;;;;6137634;23;20861;-65
2023/09/28 05:27:12;;;;;;;6.30;3.47;;;13.70;99.90;;;;;;6139239;23;20780;-64
2023/09/28 05:29:39;;;;;;;18.73;5.20;;;13.70;99.90;;;;;;6139715;23;20474;-64
2023/09/28 05:32:08;;;;;;;5.97;3.43;;;13.80;99.90;;;;;;6138425;23;20450;-65
2023/09/28 05:34:35;;;;;;;3.60;3.30;;;13.90;99.50;;;;;;6139593;23;20934;-65
2023/09/28 05:37:02;;;;;;;12.73;3.70;;;14.00;98.80;;;;;;6138157;23;20442;-65
2023/09/28 05:39:29;;;;;;;4.37;3.80;;;14.00;98.60;;;;;;6139222;23;20443;-65
2023/09/28 05:41:57;;;;;;;3.97;3.27;;;13.90;99.90;;;;;;6139915;23;20473;-65
2023/09/28 05:44:24;;;;;;;6.47;3.60;;;14.10;99.90;;;;;;6096371;23;20462;-65
2023/09/28 05:46:51;;;;;;;6.00;4.10;;;14.20;99.90;;;;;;6138143;23;20525;-64
2023/09/28 05:49:18;;;;;;;5.33;4.03;;;14.20;99.90;;;;;;6139318;23;20444;-64
2023/09/28 05:51:45;;;;;;;8.93;4.50;;;14.30;99.90;;;;;;6136995;23;20459;-65
2023/09/28 05:54:12;;;;;;;6.50;3.40;;;14.40;99.90;;;;;;6138625;23;20445;-64
2023/09/28 05:56:39;;;;;;;5.53;4.10;;;14.40;99.90;;;;;;6109427;23;20456;-64
2023/09/28 05:59:07;;;;;;;19.87;4.00;;;14.50;99.10;;;;;;6121056;23;20442;-64
2023/09/28 06:01:34;;;;;;;11.33;4.77;;;14.50;98.80;;;;;;6140298;23;20446;-64
2023/09/28 06:04:01;;;;;;;12.80;3.63;;;14.50;98.70;;;;;;6132907;23;20773;-64
2023/09/28 06:06:28;;;;;;;3.90;3.43;;;14.50;98.70;;;;;;6099146;23;20453;-65
2023/09/28 06:08:55;;;;;;;8.17;4.63;;;14.50;99.60;;;;;;6132397;23;20442;-65
2023/09/28 06:11:22;;;;;;;16.67;4.30;;;14.50;99.60;;;;;;6137586;23;20545;-64
2023/09/28 06:13:48;;;;;;;7.03;4.37;;;14.60;99.50;;;;;;6135774;23;21032;-64
2023/09/28 06:16:17;;;;;;;4.43;3.77;;;14.70;99.60;;;;;;6137375;23;20533;-65
2023/09/28 06:18:46;;;;;;;10.63;4.70;;;14.70;99.70;;;;;;6136153;23;20789;-64
2023/09/28 06:21:12;;;;;;;6.70;3.10;;;14.70;99.20;;;;;;6130730;23;20442;-65
2023/09/28 06:23:40;;;;;;;5.37;3.67;;;14.70;99.80;;;;;;6129731;23;20948;-64
2023/09/28 06:26:07;;;;;;;4.60;3.67;;;14.80;99.90;;;;;;6114847;23;20522;-65
2023/09/28 06:28:34;;;;;;;7.90;3.53;;;14.90;99.90;;;;;;6109426;23;20788;-65
2023/09/28 06:31:01;;;;;;;8.80;4.73;;;15.40;99.90;;;;;;6130591;23;20570;-64
2023/09/28 06:33:30;;;;;;;19.13;5.70;;;15.90;99.90;;;;;;6138836;23;20906;-65
2023/09/28 06:35:57;;;;;;;6.00;4.97;;;16.20;99.90;;;;;;6137828;23;20993;-64
2023/09/28 06:38:24;;;;;;;14.23;5.30;;;17.10;99.40;;;;;;6137260;23;20438;-64
2023/09/28 06:40:51;;;;;;;9.60;3.90;;;17.70;98.20;;;;;;6139867;23;20446;-65
2023/09/28 06:43:18;;;;;;;5.97;4.23;;;18.20;97.90;;;;;;6138228;23;20791;-65
2023/09/28 06:45:45;;;;;;;24.13;4.47;;;19.00;97.80;;;;;;6138603;23;20456;-65
2023/09/28 06:48:12;;;;;;;5.57;4.03;;;19.90;97.10;;;;;;6138949;23;20556;-65
2023/09/28 06:50:40;;;;;;;5.37;4.73;;;20.50;96.80;;;;;;6140636;23;21050;-66
2023/09/28 06:53:07;;;;;;;9.93;4.57;;;21.60;96.20;;;;;;6107293;23;20449;-65
2023/09/28 06:55:35;;;;;;;3.83;3.27;;;22.30;95.00;;;;;;6127662;23;20944;-65
2023/09/28 06:58:06;;;;;;;8.50;4.03;;;23.10;94.70;;;;;;6139086;23;20819;-66
2023/09/28 07:00:33;;;;;;;7.43;3.70;;;24.00;93.40;;;;;;6093295;23;21174;-65
2023/09/28 07:03:00;;;;;;;4.57;3.67;;;24.60;92.60;;;;;;6137643;23;20442;-66
2023/09/28 07:05:27;;;;;;;4.43;4.00;;;25.20;91.90;;;;;;6136281;23;20756;-65
2023/09/28 07:07:56;;;;;;;7.10;4.30;;;26.10;90.40;;;;;;6137888;23;20446;-66
2023/09/28 07:10:23;;;;;;;12.10;4.63;;;26.30;90.20;;;;;;6137590;23;20789;-66
2023/09/28 07:12:50;;;;;;;13.93;4.60;;;27.40;89.20;;;;;;6102478;23;20997;-66
2023/09/28 07:15:17;;;;;;;8.60;4.30;;;27.90;88.80;;;;;;6135820;23;20442;-66
2023/09/28 07:17:44;;;;;;;11.07;4.60;;;28.50;87.10;;;;;;6116504;23;20483;-66
2023/09/28 07:20:14;;;;;;;9.83;4.70;;;29.00;87.40;;;;;;6105919;23;20517;-66
2023/09/28 07:22:41;;;;;;;4.93;4.17;;;28.60;85.00;;;;;;6137548;23;20810;-66
2023/09/28 07:25:10;;;;;;;8.00;4.13;;;28.10;84.40;;;;;;6133087;23;20719;-66
2023/09/28 07:27:37;;;;;;;5.13;4.20;;;27.70;85.90;;;;;;6126638;23;21016;-66
2023/09/28 07:30:06;;;;;;;5.13;3.83;;;27.80;86.50;;;;;;6112423;23;20447;-66
2023/09/28 07:32:33;;;;;;;4.20;3.80;;;28.00;86.80;;;;;;6118644;23;20424;-66
2023/09/28 07:35:00;;;;;;;4.63;3.90;;;28.80;89.40;;;;;;6140532;23;20992;-66
2023/09/28 07:37:27;;;;;;;9.10;3.67;;;29.40;87.10;;;;;;6140174;23;20449;-67
2023/09/28 07:39:54;;;;;;;10.27;5.30;;;29.50;87.10;;;;;;6138808;23;21011;-67
2023/09/28 07:42:23;;;;;;;15.70;4.10;;;30.10;84.70;;;;;;6127682;23;20456;-65
2023/09/28 07:44:52;;;;;;;6.30;3.20;;;30.00;83.60;;;;;;6133179;23;20457;-66
2023/09/28 07:47:20;;;;;;;10.30;3.90;;;29.90;84.20;;;;;;6129516;23;20444;-66
2023/09/28 07:49:47;;;;;;;6.07;4.20;;;29.70;84.60;;;;;;6140098;23;20461;-66
2023/09/28 07:52:15;;;;;;;4.30;3.67;;;28.90;81.30;;;;;;6099384;23;21189;-66
2023/09/28 07:54:42;;;;;;;7.40;3.63;;;27.90;83.40;;;;;;6139831;23;21249;-66
2023/09/28 07:57:08;;;;;;;15.20;4.30;;;26.90;85.00;;;;;;6140873;23;20827;-67
2023/09/28 07:59:37;;;;;;;4.30;3.70;;;26.40;86.20;;;;;;6140128;23;20420;-66
2023/09/28 08:02:05;;;;;;;5.73;3.20;;;25.70;88.60;;;;;;6140244;23;20442;-65
2023/09/28 08:04:32;;;;;;;6.73;4.30;;;25.30;87.90;;;;;;6139598;23;20421;-66
2023/09/28 08:06:59;;;;;;;7.93;4.40;;;24.70;90.00;;;;;;6139093;23;20492;-66
2023/09/28 08:09:26;;;;;;;4.73;3.50;;;24.40;90.20;;;;;;6141247;23;21067;-66
2023/09/28 08:11:52;;;;;;;21.50;5.17;;;24.20;90.60;;;;;;6138538;23;20417;-65
2023/09/28 08:14:21;;;;;;;4.83;4.00;;;24.00;91.00;;;;;;6140913;23;20497;-66
2023/09/28 08:16:50;;;;;;;16.70;4.23;;;;;;;;;;6100196;23;20421;-66
2023/09/28 08:19:19;;;;;;;13.70;3.67;;;23.80;91.30;;;;;;6138501;23;20444;-66
2023/09/28 08:21:47;;;;;;;9.67;4.33;;;23.80;91.70;;;;;;6136551;23;21116;-65
2023/09/28 08:24:13;;;;;;;3.63;2.87;;;23.80;92.10;;;;;;6138866;23;20413;-66
2023/09/28 08:26:40;;;;;;;7.00;3.40;;;23.90;92.10;;;;;;6140816;23;20434;-68
2023/09/28 08:29:07;;;;;;;12.40;4.30;;;24.00;91.70;;;;;;6140248;23;21058;-70
2023/09/28 08:31:34;;;;;;;4.03;3.00;;;23.90;92.40;;;;;;6140841;23;21153;-67
2023/09/28 08:34:04;;;;;;;13.43;3.97;;;23.80;91.90;;;;;;6139248;23;20449;-67
2023/09/28 08:36:31;;;;;;;6.53;3.70;;;23.80;92.40;;;;;;6139294;23;20462;-66
2023/09/28 08:38:58;;;;;;;5.10;3.40;;;23.90;92.60;;;;;;6136617;23;20423;-68
2023/09/28 08:41:32;;;;;;;8.20;4.20;;;24.00;91.90;;;;;;6139582;23;20960;-67
2023/09/28 08:44:04;;;;;;;7.90;3.30;;;24.10;92.10;;;;;;6122023;23;20442;-67
2023/09/28 08:46:32;;;;;;;27.10;4.30;;;24.40;92.80;;;;;;6116306;23;20446;-67
2023/09/28 08:49:02;;;;;;;18.37;4.63;;;24.30;90.90;;;;;;6139738;23;20414;-67
2023/09/28 08:51:31;;;;;;;5.23;3.30;;;24.30;90.90;;;;;;6139361;23;20425;-67
2023/09/28 08:54:28;;;;;;;7.10;3.53;;;24.10;90.80;;;;;;6137367;23;20962;-67
2023/09/28 08:56:57;;;;;;;3.87;3.53;;;24.10;90.50;;;;;;6134469;23;20431;-67
2023/09/28 08:59:28;;;;;;;4.43;3.70;;;24.20;91.50;;;;;;6140833;23;20928;-67
2023/09/28 09:01:56;;;;;;;17.87;4.40;;;24.20;91.20;;;;;;6139048;23;20446;-66
2023/09/28 09:04:23;;;;;;;6.03;2.67;;;24.40;91.10;;;;;;6135932;23;20529;-66
2023/09/28 09:06:51;;;;;;;13.63;4.00;;;24.40;91.20;;;;;;6135949;23;20441;-66
2023/09/28 09:09:20;;;;;;;4.73;3.90;;;24.40;91.60;;;;;;6137113;23;20442;-66
2023/09/28 09:11:52;;;;;;;39.87;5.27;;;24.40;90.50;;;;;;6139488;23;20953;-66
2023/09/28 09:14:19;;;;;;;9.30;4.13;;;24.30;90.70;;;;;;6139929;23;20949;-66
2023/09/28 09:16:46;;;;;;;8.93;3.67;;;24.30;91.30;;;;;;6138528;23;20450;-66
2023/09/28 09:19:14;;;;;;;4.10;2.60;;;24.30;90.50;;;;;;6114450;23;20459;-65
2023/09/28 09:21:44;;;;;;;5.77;3.20;;;24.50;91.40;;;;;;6123224;23;20859;-66
2023/09/28 09:24:13;;;;;;;17.93;3.80;;;24.90;92.10;;;;;;6139080;23;20471;-66
2023/09/28 09:26:43;;;;;;;7.73;3.17;;;24.80;89.40;;;;;;6139828;23;20450;-66
2023/09/28 09:29:11;;;;;;;3.17;2.60;;;25.00;90.50;;;;;;6102911;23;20422;-67
2023/09/28 09:31:40;;;;;;;4.30;3.30;;;24.80;90.40;;;;;;6135790;23;20442;-67
2023/09/28 09:34:11;;;;;;;6.10;3.27;;;24.60;90.30;;;;;;6139087;23;20435;-66
2023/09/28 09:36:38;;;;;;;12.90;4.50;;;24.70;90.40;;;;;;6139852;23;20451;-66
2023/09/28 09:39:06;;;;;;;5.77;3.90;;;24.70;91.20;;;;;;6137740;23;20453;-65
2023/09/28 09:41:45;;;;;;;6.63;3.43;;;24.50;90.60;;;;;;6139802;23;20416;-66
2023/09/28 09:44:16;;;;;;;50.50;4.87;;;24.70;91.10;;;;;;6138440;23;20454;-66
2023/09/28 09:46:43;;;;;;;4.87;3.20;;;24.80;90.40;;;;;;6138779;23;20449;-66
2023/09/28 09:49:11;;;;;;;9.87;3.90;;;24.80;90.90;;;;;;6139715;23;21050;-66
2023/09/28 09:51:40;;;;;;;14.73;3.70;;;24.80;90.90;;;;;;6139299;23;20417;-68
2023/09/28 09:54:11;;;;;;;17.23;3.70;;;24.80;91.60;;;;;;6138397;23;20445;-66
2023/09/28 09:56:40;;;;;;;12.10;3.93;;;24.90;90.90;;;;;;6139101;23;20420;-65
2023/09/28 09:59:12;;;;;;;10.93;3.37;;;24.90;90.60;;;;;;6138453;23;20439;-66
2023/09/28 10:01:41;;;;;;;3.30;2.67;;;24.90;91.50;;;;;;6136307;23;20794;-65
2023/09/28 10:04:12;;;;;;;4.27;3.60;;;24.80;90.70;;;;;;6137583;23;20846;-65
2023/09/28 10:06:39;;;;;;;5.17;3.10;;;24.90;91.60;;;;;;6140955;23;20469;-65
2023/09/28 10:09:10;;;;;;;3.60;3.03;;;25.00;91.60;;;;;;6138699;23;20452;-65
2023/09/28 10:11:39;;;;;;;14.40;3.10;;;25.00;90.70;;;;;;6137440;23;20457;-66
2023/09/28 10:14:08;;;;;;;3.40;2.17;;;25.20;91.40;;;;;;6139195;23;20446;-65
2023/09/28 10:16:36;;;;;;;11.53;3.43;;;25.10;90.10;;;;;;6139017;23;20450;-66
2023/09/28 10:19:05;;;;;;;15.30;3.83;;;25.20;90.70;;;;;;6139703;23;21029;-66
2023/09/28 10:21:34;;;;;;;3.60;2.97;;;;;;;;;;6139213;23;20927;-64
2023/09/28 10:24:09;;;;;;;16.53;4.00;;;25.40;91.60;;;;;;6136996;23;20442;-65
2023/09/28 10:26:36;;;;;;;3.00;2.67;;;25.50;91.10;;;;;;6138679;23;20450;-67
2023/09/28 10:29:04;;;;;;;8.60;3.37;;;25.60;90.70;;;;;;6140688;23;20446;-66
2023/09/28 10:31:34;;;;;;;5.37;3.57;;;25.50;90.20;;;;;;6138974;23;20774;-65
2023/09/28 10:34:02;;;;;;;6.27;2.97;;;25.50;91.00;;;;;;6138084;23;20497;-66
2023/09/28 10:36:30;;;;;;;4.47;2.40;;;25.60;90.40;;;;;;6139879;23;20449;-67
2023/09/28 10:39:14;;;;;;;3.67;2.83;;;25.50;90.50;;;;;;6139305;23;20443;-65
2023/09/28 10:41:45;;;;;;;3.60;3.30;;;25.70;90.90;;;;;;6138778;23;20480;-66
2023/09/28 10:44:14;;;;;;;3.27;2.77;;;25.60;89.80;;;;;;6114504;23;20461;-65
2023/09/28 10:46:42;;;;;;;12.60;3.10;;;25.70;90.50;;;;;;6122919;23;20473;-64
2023/09/28 10:49:10;;;;;;;7.23;3.17;;;25.60;90.00;;;;;;6141345;23;20445;-66
2023/09/28 10:51:37;;;;;;;5.27;2.53;;;25.50;90.30;;;;;;6141673;23;21026;-64
2023/09/28 10:54:06;;;;;;;5.07;2.93;;;25.40;90.30;;;;;;6138928;23;20524;-66
2023/09/28 10:56:33;;;;;;;11.93;3.90;;;25.40;90.90;;;;;;6141754;23;20494;-66
2023/09/28 10:59:04;;;;;;;14.93;4.20;;;25.50;91.80;;;;;;6100887;23;20439;-66
2023/09/28 11:01:32;;;;;;;6.60;3.40;;;25.60;91.90;;;;;;6141213;23;20437;-66
2023/09/28 11:04:00;;;;;;;4.53;3.30;;;25.60;91.90;;;;;;6139971;23;20449;-65
2023/09/28 11:06:27;;;;;;;9.70;3.87;;;25.80;90.30;;;;;;6142196;23;20755;-66
2023/09/28 11:08:54;;;;;;;17.10;3.70;;;26.10;91.20;;;;;;6121136;23;20772;-65
2023/09/28 11:11:21;;;;;;;3.63;2.30;;;26.40;91.20;;;;;;6121081;23;20428;-65
2023/09/28 11:13:49;;;;;;;31.63;5.20;;;26.30;89.40;;;;;;6136414;23;20446;-66
2023/09/28 11:16:18;;;;;;;4.00;3.43;;;26.50;90.60;;;;;;6135538;23;20449;-65
2023/09/28 11:18:46;;;;;;;17.07;3.27;;;26.80;90.80;;;;;;6141737;23;20816;-66
2023/09/28 11:21:15;;;;;;;9.77;3.57;;;26.70;90.40;;;;;;6137294;23;20446;-66
2023/09/28 11:23:42;;;;;;;12.53;3.70;;;26.80;90.70;;;;;;6110513;23;20455;-67
2023/09/28 11:26:10;;;;;;;4.37;3.03;;;26.70;90.40;;;;;;6128702;23;20449;-66
2023/09/28 11:28:38;;;;;;;9.13;3.43;;;26.60;90.00;;;;;;6140122;23;20504;-68
2023/09/28 11:31:08;;;;;;;7.03;3.70;;;26.60;90.20;;;;;;6138214;23;20444;-66
2023/09/28 11:33:36;;;;;;;5.20;3.43;;;26.50;90.00;;;;;;6140481;23;20428;-64
2023/09/28 11:36:04;;;;;;;5.60;3.20;;;26.40;89.50;;;;;;6141108;23;20782;-64
2023/09/28 11:38:32;;;;;;;3.00;2.70;;;26.60;91.30;;;;;;6139490;23;20445;-68
2023/09/28 11:40:59;;;;;;;5.50;3.23;;;26.70;90.60;;;;;;6140494;23;21310;-66
2023/09/28 11:43:26;;;;;;;5.17;3.13;;;26.90;90.20;;;;;;6141179;23;20773;-63
2023/09/28 11:45:56;;;;;;;4.27;3.17;;;27.00;91.20;;;;;;6137681;23;20452;-66
2023/09/28 11:48:23;;;;;;;33.80;4.40;;;27.20;90.10;;;;;;6141453;23;20503;-65
2023/09/28 11:50:50;;;;;;;4.13;2.53;;;27.20;89.40;;;;;;6140324;23;20974;-66
2023/09/28 11:53:17;;;;;;;6.00;2.93;;;;;;;;;;6140122;23;20429;-65
2023/09/28 11:55:47;;;;;;;10.80;3.30;;;27.10;89.40;;;;;;6140994;23;20453;-65
2023/09/28 11:58:21;;;;;;;27.33;4.60;;;27.00;90.40;;;;;;6138475;23;20432;-63
2023/09/28 12:00:49;;;;;;;3.30;3.00;;;27.10;90.40;;;;;;6139838;23;20424;-66
2023/09/28 12:03:16;;;;;;;12.03;3.20;;;27.30;89.80;;;;;;6140381;23;20428;-64
2023/09/28 12:05:43;;;;;;;4.20;2.37;;;27.40;89.60;;;;;;6113510;23;20446;-64
2023/09/28 12:08:10;;;;;;;3.57;3.10;;;27.60;90.70;;;;;;6139867;23;20797;-64
2023/09/28 12:10:38;;;;;;;4.23;3.83;;;27.80;91.00;;;;;;6140194;23;20451;-64
2023/09/28 12:13:06;;;;;;;9.33;4.20;;;27.50;88.80;;;;;;6139800;23;20793;-66
2023/09/28 12:15:33;;;;;;;23.30;4.10;;;27.50;91.60;;;;;;6140771;23;20534;-64
2023/09/28 12:18:00;;;;;;;20.03;4.17;;;27.60;91.10;;;;;;6140406;23;20416;-63
2023/09/28 12:20:27;;;;;;;10.80;4.00;;;27.60;91.00;;;;;;6100917;23;20419;-66
2023/09/28 12:22:54;;;;;;;9.53;4.27;;;27.40;88.60;;;;;;6139286;23;20442;-67
2023/09/28 12:25:23;;;;;;;4.70;3.83;;;27.20;89.50;;;;;;6140950;23;20494;-65
2023/09/28 12:27:50;;;;;;;5.40;3.50;;;27.20;90.60;;;;;;6141718;23;20775;-67
2023/09/28 12:30:21;;;;;;;11.97;4.17;;;27.10;90.40;;;;;;6137867;23;20425;-66
2023/09/28 12:32:50;;;;;;;3.63;3.20;;;27.10;90.50;;;;;;6132334;23;20897;-68
2023/09/28 12:35:18;;;;;;;4.37;3.60;;;27.10;90.80;;;;;;6136077;23;20421;-65
2023/09/28 12:37:46;;;;;;;10.67;4.20;;;27.10;90.90;;;;;;6136763;23;20418;-65
2023/09/28 12:40:13;;;;;;;4.23;3.73;;;27.20;90.30;;;;;;6139372;23;20450;-66
2023/09/28 12:42:41;;;;;;;4.00;3.20;;;27.20;91.00;;;;;;6126376;23;21004;-68
2023/09/28 12:45:09;;;;;;;8.10;3.50;;;27.20;89.20;;;;;;6136447;23;20421;-65
2023/09/28 12:47:38;;;;;;;4.83;3.50;;;27.20;90.20;;;;;;6136038;23;20486;-66
2023/09/28 12:50:07;;;;;;;18.67;3.80;;;27.10;89.00;;;;;;6134143;23;20521;-66
2023/09/28 12:52:35;;;;;;;4.97;3.30;;;27.30;90.80;;;;;;6106292;23;20510;-67
2023/09/28 12:55:03;;;;;;;3.37;2.60;;;27.40;90.60;;;;;;6123109;23;20513;-66